sensor_id;sensor_type;location;lat;lon;timestamp;P1;durP1;ratioP1;P2;durP2;ratioP2
34453;SDS011;60061;52.080;5.312;2022-07-22T00:01:35;11.3;;;3.4;;
34453;SDS011;60061;52.080;5.312;2022-07-22T00:03:21;8.31;;;3.1;;
34453;SDS011;60061;52.080;5.312;2022-07-22T00:05:07;6.2;;;3.0;;
34453;SDS011;60061;52.080;5.312;2022-07-22T00:06:56;6.5;;;3.2;;
34453;SDS011;60061;52.080;5.312;2022-07-22T00:08:41;8.0;;;3.5;;
34453;SDS011;60061;52.080;5.312;2022-07-22T00:12:15;6.9;;;3.5;;
34453;SDS011;60061;52.080;5.312;2022-07-22T00:14:01;9.0;;;3.5;;
34453;SDS011;60061;52.080;5.312;2022-07-22T00:15:48;7.8;;;3.0;;
34453;SDS011;60061;52.080;5.312;2022-07-22T00:17:36;9.31;;;3.4;;
34453;SDS011;60061;52.080;5.312;2022-07-22T00:19:24;7.9;;;3.6;;
34453;SDS011;60061;52.080;5.312;2022-07-22T00:21:13;9.31;;;3.5;;
34453;SDS011;60061;52.080;5.312;2022-07-22T00:24:46;7.8;;;3.4;;
34453;SDS011;60061;52.080;5.312;2022-07-22T00:26:32;8.1;;;3.4;;
34453;SDS011;60061;52.080;5.312;2022-07-22T00:28:19;5.7;;;3.2;;
34453;SDS011;60061;52.080;5.312;2022-07-22T00:30:07;7.9;;;3.1;;
34453;SDS011;60061;52.080;5.312;2022-07-22T00:31:54;10.4;;;3.4;;
34453;SDS011;60061;52.080;5.312;2022-07-22T00:33:41;9.9;;;3.4;;
34453;SDS011;60061;52.080;5.312;2022-07-22T00:37:15;7.2;;;3.3;;
34453;SDS011;60061;52.080;5.312;2022-07-22T00:39:02;7.4;;;3.2;;
34453;SDS011;60061;52.080;5.312;2022-07-22T00:40:49;9.5;;;3.6;;
34453;SDS011;60061;52.080;5.312;2022-07-22T00:42:36;11.8;;;3.7;;
34453;SDS011;60061;52.080;5.312;2022-07-22T00:44:23;9.5;;;3.2;;
34453;SDS011;60061;52.080;5.312;2022-07-22T00:47:55;10.21;;;3.4;;
34453;SDS011;60061;52.080;5.312;2022-07-22T00:49:41;6.5;;;3.2;;
34453;SDS011;60061;52.080;5.312;2022-07-22T00:51:28;8.5;;;3.6;;
34453;SDS011;60061;52.080;5.312;2022-07-22T00:53:16;7.2;;;3.6;;
34453;SDS011;60061;52.080;5.312;2022-07-22T00:55:03;8.1;;;3.5;;
34453;SDS011;60061;52.080;5.312;2022-07-22T00:56:52;10.5;;;3.6;;
34453;SDS011;60061;52.080;5.312;2022-07-22T01:00:26;7.7;;;3.1;;
34453;SDS011;60061;52.080;5.312;2022-07-22T01:02:13;8.0;;;3.2;;
34453;SDS011;60061;52.080;5.312;2022-07-22T01:04:00;8.2;;;3.3;;
34453;SDS011;60061;52.080;5.312;2022-07-22T01:05:47;5.5;;;3.2;;
34453;SDS011;60061;52.080;5.312;2022-07-22T01:07:33;10.5;;;3.2;;
34453;SDS011;60061;52.080;5.312;2022-07-22T01:09:20;10.3;;;3.4;;
34453;SDS011;60061;52.080;5.312;2022-07-22T01:12:54;6.3;;;3.3;;
34453;SDS011;60061;52.080;5.312;2022-07-22T01:14:41;6.4;;;3.6;;
34453;SDS011;60061;52.080;5.312;2022-07-22T01:16:29;12.2;;;3.6;;
34453;SDS011;60061;52.080;5.312;2022-07-22T01:18:15;8.4;;;3.2;;
34453;SDS011;60061;52.080;5.312;2022-07-22T01:20:03;6.3;;;3.2;;
34453;SDS011;60061;52.080;5.312;2022-07-22T01:21:50;8.31;;;3.3;;
34453;SDS011;60061;52.080;5.312;2022-07-22T01:25:24;8.9;;;3.5;;
34453;SDS011;60061;52.080;5.312;2022-07-22T01:27:12;10.9;;;3.6;;
34453;SDS011;60061;52.080;5.312;2022-07-22T01:28:58;7.3;;;3.6;;
34453;SDS011;60061;52.080;5.312;2022-07-22T01:30:44;6.8;;;3.8;;
34453;SDS011;60061;52.080;5.312;2022-07-22T01:32:30;6.9;;;3.3;;
34453;SDS011;60061;52.080;5.312;2022-07-22T01:36:03;8.0;;;3.7;;
34453;SDS011;60061;52.080;5.312;2022-07-22T01:37:51;8.2;;;3.8;;
34453;SDS011;60061;52.080;5.312;2022-07-22T01:39:37;7.5;;;3.6;;
34453;SDS011;60061;52.080;5.312;2022-07-22T01:41:23;9.31;;;3.8;;
34453;SDS011;60061;52.080;5.312;2022-07-22T01:43:09;7.9;;;3.3;;
34453;SDS011;60061;52.080;5.312;2022-07-22T01:44:56;6.5;;;3.7;;
34453;SDS011;60061;52.080;5.312;2022-07-22T01:48:28;8.31;;;3.4;;
34453;SDS011;60061;52.080;5.312;2022-07-22T01:50:16;6.3;;;3.6;;
34453;SDS011;60061;52.080;5.312;2022-07-22T01:52:02;7.9;;;3.6;;
34453;SDS011;60061;52.080;5.312;2022-07-22T01:53:51;7.9;;;3.3;;
34453;SDS011;60061;52.080;5.312;2022-07-22T01:55:37;9.0;;;3.6;;
34453;SDS011;60061;52.080;5.312;2022-07-22T01:57:24;7.9;;;3.6;;
34453;SDS011;60061;52.080;5.312;2022-07-22T02:00:58;11.7;;;4.0;;
34453;SDS011;60061;52.080;5.312;2022-07-22T02:02:45;7.3;;;3.5;;
34453;SDS011;60061;52.080;5.312;2022-07-22T02:04:32;5.6;;;3.3;;
34453;SDS011;60061;52.080;5.312;2022-07-22T02:06:18;10.6;;;3.6;;
34453;SDS011;60061;52.080;5.312;2022-07-22T02:08:06;8.2;;;3.3;;
34453;SDS011;60061;52.080;5.312;2022-07-22T02:09:55;10.0;;;3.4;;
34453;SDS011;60061;52.080;5.312;2022-07-22T02:13:28;7.6;;;3.5;;
34453;SDS011;60061;52.080;5.312;2022-07-22T02:15:15;9.6;;;3.5;;
34453;SDS011;60061;52.080;5.312;2022-07-22T02:17:01;11.5;;;3.6;;
34453;SDS011;60061;52.080;5.312;2022-07-22T02:18:48;8.9;;;3.4;;
34453;SDS011;60061;52.080;5.312;2022-07-22T02:20:35;8.81;;;3.6;;
34453;SDS011;60061;52.080;5.312;2022-07-22T02:24:09;5.3;;;3.3;;
34453;SDS011;60061;52.080;5.312;2022-07-22T02:25:55;9.0;;;3.6;;
34453;SDS011;60061;52.080;5.312;2022-07-22T02:27:42;9.0;;;3.2;;
34453;SDS011;60061;52.080;5.312;2022-07-22T02:29:28;7.0;;;3.5;;
34453;SDS011;60061;52.080;5.312;2022-07-22T02:31:14;7.5;;;3.2;;
34453;SDS011;60061;52.080;5.312;2022-07-22T02:33:01;6.6;;;3.7;;
34453;SDS011;60061;52.080;5.312;2022-07-22T02:36:34;6.5;;;3.3;;
34453;SDS011;60061;52.080;5.312;2022-07-22T02:38:20;6.5;;;3.2;;
34453;SDS011;60061;52.080;5.312;2022-07-22T02:40:08;8.31;;;3.5;;
34453;SDS011;60061;52.080;5.312;2022-07-22T02:41:55;7.2;;;3.5;;
34453;SDS011;60061;52.080;5.312;2022-07-22T02:43:41;8.0;;;3.5;;
34453;SDS011;60061;52.080;5.312;2022-07-22T02:45:28;5.3;;;3.3;;
34453;SDS011;60061;52.080;5.312;2022-07-22T02:49:02;9.5;;;3.8;;
34453;SDS011;60061;52.080;5.312;2022-07-22T02:50:49;5.6;;;3.5;;
34453;SDS011;60061;52.080;5.312;2022-07-22T02:52:36;5.4;;;3.3;;
34453;SDS011;60061;52.080;5.312;2022-07-22T02:54:22;7.7;;;3.3;;
34453;SDS011;60061;52.080;5.312;2022-07-22T02:56:09;7.6;;;3.0;;
34453;SDS011;60061;52.080;5.312;2022-07-22T02:59:42;8.1;;;3.3;;
34453;SDS011;60061;52.080;5.312;2022-07-22T03:01:29;8.31;;;3.4;;
34453;SDS011;60061;52.080;5.312;2022-07-22T03:03:15;7.4;;;3.4;;
34453;SDS011;60061;52.080;5.312;2022-07-22T03:05:01;8.71;;;3.5;;
34453;SDS011;60061;52.080;5.312;2022-07-22T03:06:48;6.7;;;3.4;;
34453;SDS011;60061;52.080;5.312;2022-07-22T03:08:36;7.3;;;3.4;;
34453;SDS011;60061;52.080;5.312;2022-07-22T03:12:09;5.4;;;3.3;;
34453;SDS011;60061;52.080;5.312;2022-07-22T03:13:56;5.9;;;3.1;;
34453;SDS011;60061;52.080;5.312;2022-07-22T03:15:42;5.7;;;3.2;;
34453;SDS011;60061;52.080;5.312;2022-07-22T03:17:29;7.9;;;3.3;;
34453;SDS011;60061;52.080;5.312;2022-07-22T03:19:20;5.2;;;3.3;;
34453;SDS011;60061;52.080;5.312;2022-07-22T03:21:06;4.91;;;3.1;;
34453;SDS011;60061;52.080;5.312;2022-07-22T03:24:39;6.3;;;3.3;;
34453;SDS011;60061;52.080;5.312;2022-07-22T03:26:25;7.1;;;3.5;;
34453;SDS011;60061;52.080;5.312;2022-07-22T03:28:12;9.1;;;3.7;;
34453;SDS011;60061;52.080;5.312;2022-07-22T03:29:58;7.3;;;3.5;;
34453;SDS011;60061;52.080;5.312;2022-07-22T03:31:44;8.31;;;3.7;;
34453;SDS011;60061;52.080;5.312;2022-07-22T03:35:16;9.1;;;3.7;;
34453;SDS011;60061;52.080;5.312;2022-07-22T03:37:02;7.3;;;3.3;;
34453;SDS011;60061;52.080;5.312;2022-07-22T03:38:49;8.2;;;3.8;;
34453;SDS011;60061;52.080;5.312;2022-07-22T03:40:35;5.3;;;3.4;;
34453;SDS011;60061;52.080;5.312;2022-07-22T03:42:21;5.8;;;3.4;;
34453;SDS011;60061;52.080;5.312;2022-07-22T03:44:07;5.7;;;3.3;;
34453;SDS011;60061;52.080;5.312;2022-07-22T03:47:40;6.9;;;3.5;;
34453;SDS011;60061;52.080;5.312;2022-07-22T03:49:29;6.2;;;3.4;;
34453;SDS011;60061;52.080;5.312;2022-07-22T03:51:17;5.6;;;2.9;;
34453;SDS011;60061;52.080;5.312;2022-07-22T03:53:03;8.31;;;3.2;;
34453;SDS011;60061;52.080;5.312;2022-07-22T03:54:49;5.4;;;3.6;;
34453;SDS011;60061;52.080;5.312;2022-07-22T03:56:36;6.2;;;3.4;;
34453;SDS011;60061;52.080;5.312;2022-07-22T04:00:09;5.0;;;3.2;;
34453;SDS011;60061;52.080;5.312;2022-07-22T04:01:56;5.8;;;3.6;;
34453;SDS011;60061;52.080;5.312;2022-07-22T04:03:42;6.5;;;3.5;;
34453;SDS011;60061;52.080;5.312;2022-07-22T04:05:28;4.41;;;3.1;;
34453;SDS011;60061;52.080;5.312;2022-07-22T04:07:14;6.2;;;3.1;;
34453;SDS011;60061;52.080;5.312;2022-07-22T04:12:35;7.3;;;3.0;;
34453;SDS011;60061;52.080;5.312;2022-07-22T04:14:24;5.7;;;3.2;;
34453;SDS011;60061;52.080;5.312;2022-07-22T04:16:10;6.5;;;3.7;;
34453;SDS011;60061;52.080;5.312;2022-07-22T04:17:56;7.5;;;3.9;;
34453;SDS011;60061;52.080;5.312;2022-07-22T04:19:43;7.4;;;3.5;;
34453;SDS011;60061;52.080;5.312;2022-07-22T04:23:17;6.9;;;3.3;;
34453;SDS011;60061;52.080;5.312;2022-07-22T04:25:04;4.91;;;3.2;;
34453;SDS011;60061;52.080;5.312;2022-07-22T04:26:51;5.8;;;3.3;;
34453;SDS011;60061;52.080;5.312;2022-07-22T04:28:37;7.9;;;3.2;;
34453;SDS011;60061;52.080;5.312;2022-07-22T04:30:23;6.6;;;3.0;;
34453;SDS011;60061;52.080;5.312;2022-07-22T04:32:09;5.11;;;3.2;;
34453;SDS011;60061;52.080;5.312;2022-07-22T04:35:44;4.91;;;2.7;;
34453;SDS011;60061;52.080;5.312;2022-07-22T04:37:30;5.11;;;2.8;;
34453;SDS011;60061;52.080;5.312;2022-07-22T04:39:18;6.3;;;3.0;;
34453;SDS011;60061;52.080;5.312;2022-07-22T04:41:04;7.4;;;3.1;;
34453;SDS011;60061;52.080;5.312;2022-07-22T04:42:51;7.0;;;3.3;;
34453;SDS011;60061;52.080;5.312;2022-07-22T04:46:24;7.1;;;3.4;;
34453;SDS011;60061;52.080;5.312;2022-07-22T04:48:11;4.41;;;3.2;;
34453;SDS011;60061;52.080;5.312;2022-07-22T04:49:57;8.0;;;3.2;;
34453;SDS011;60061;52.080;5.312;2022-07-22T04:51:43;7.6;;;3.0;;
34453;SDS011;60061;52.080;5.312;2022-07-22T04:53:30;7.5;;;3.2;;
34453;SDS011;60061;52.080;5.312;2022-07-22T04:55:16;5.9;;;2.9;;
34453;SDS011;60061;52.080;5.312;2022-07-22T04:58:51;6.3;;;2.7;;
34453;SDS011;60061;52.080;5.312;2022-07-22T05:00:38;4.41;;;2.5;;
34453;SDS011;60061;52.080;5.312;2022-07-22T05:02:24;5.4;;;2.7;;
34453;SDS011;60061;52.080;5.312;2022-07-22T05:04:10;5.3;;;2.7;;
34453;SDS011;60061;52.080;5.312;2022-07-22T05:05:59;4.5;;;2.5;;
34453;SDS011;60061;52.080;5.312;2022-07-22T05:07:45;6.1;;;2.8;;
34453;SDS011;60061;52.080;5.312;2022-07-22T05:11:18;6.7;;;2.9;;
34453;SDS011;60061;52.080;5.312;2022-07-22T05:13:04;6.2;;;3.3;;
34453;SDS011;60061;52.080;5.312;2022-07-22T05:14:51;4.41;;;2.7;;
34453;SDS011;60061;52.080;5.312;2022-07-22T05:16:38;5.7;;;2.31;;
34453;SDS011;60061;52.080;5.312;2022-07-22T05:18:25;3.7;;;2.0;;
34453;SDS011;60061;52.080;5.312;2022-07-22T05:23:44;5.4;;;2.31;;
34453;SDS011;60061;52.080;5.312;2022-07-22T05:25:30;5.3;;;2.1;;
34453;SDS011;60061;52.080;5.312;2022-07-22T05:27:18;7.3;;;2.7;;
34453;SDS011;60061;52.080;5.312;2022-07-22T05:29:05;5.9;;;2.31;;
34453;SDS011;60061;52.080;5.312;2022-07-22T05:30:52;3.5;;;2.5;;
34453;SDS011;60061;52.080;5.312;2022-07-22T05:34:24;4.8;;;2.21;;
34453;SDS011;60061;52.080;5.312;2022-07-22T05:36:10;4.8;;;2.1;;
34453;SDS011;60061;52.080;5.312;2022-07-22T05:37:58;4.7;;;2.1;;
34453;SDS011;60061;52.080;5.312;2022-07-22T05:39:45;4.41;;;2.21;;
34453;SDS011;60061;52.080;5.312;2022-07-22T05:41:32;4.8;;;2.21;;
34453;SDS011;60061;52.080;5.312;2022-07-22T05:43:18;5.8;;;2.1;;
34453;SDS011;60061;52.080;5.312;2022-07-22T05:46:53;3.9;;;2.21;;
34453;SDS011;60061;52.080;5.312;2022-07-22T05:48:39;6.8;;;2.21;;
34453;SDS011;60061;52.080;5.312;2022-07-22T05:50:27;4.61;;;1.9;;
34453;SDS011;60061;52.080;5.312;2022-07-22T05:52:14;3.3;;;2.0;;
34453;SDS011;60061;52.080;5.312;2022-07-22T05:54:02;5.2;;;2.0;;
34453;SDS011;60061;52.080;5.312;2022-07-22T05:57:35;5.11;;;2.0;;
34453;SDS011;60061;52.080;5.312;2022-07-22T05:59:22;7.3;;;2.4;;
34453;SDS011;60061;52.080;5.312;2022-07-22T06:01:08;5.5;;;2.0;;
34453;SDS011;60061;52.080;5.312;2022-07-22T06:02:56;4.0;;;1.8;;
34453;SDS011;60061;52.080;5.312;2022-07-22T06:04:42;6.1;;;2.0;;
34453;SDS011;60061;52.080;5.312;2022-07-22T06:06:28;2.7;;;1.6;;
34453;SDS011;60061;52.080;5.312;2022-07-22T06:10:01;6.3;;;1.9;;
34453;SDS011;60061;52.080;5.312;2022-07-22T06:11:47;5.11;;;1.8;;
34453;SDS011;60061;52.080;5.312;2022-07-22T06:13:33;4.91;;;1.9;;
34453;SDS011;60061;52.080;5.312;2022-07-22T06:15:20;5.11;;;2.0;;
34453;SDS011;60061;52.080;5.312;2022-07-22T06:17:06;4.2;;;1.9;;
34453;SDS011;60061;52.080;5.312;2022-07-22T06:18:52;5.0;;;2.0;;
34453;SDS011;60061;52.080;5.312;2022-07-22T06:22:26;2.6;;;1.6;;
34453;SDS011;60061;52.080;5.312;2022-07-22T06:24:12;4.41;;;1.9;;
34453;SDS011;60061;52.080;5.312;2022-07-22T06:25:58;5.11;;;2.0;;
34453;SDS011;60061;52.080;5.312;2022-07-22T06:27:44;4.91;;;1.7;;
34453;SDS011;60061;52.080;5.312;2022-07-22T06:29:31;5.8;;;1.6;;
34453;SDS011;60061;52.080;5.312;2022-07-22T06:33:04;8.6;;;2.0;;
34453;SDS011;60061;52.080;5.312;2022-07-22T06:34:50;4.3;;;1.6;;
34453;SDS011;60061;52.080;5.312;2022-07-22T06:36:36;3.5;;;1.5;;
34453;SDS011;60061;52.080;5.312;2022-07-22T06:38:23;3.0;;;1.5;;
34453;SDS011;60061;52.080;5.312;2022-07-22T06:40:10;6.9;;;1.8;;
34453;SDS011;60061;52.080;5.312;2022-07-22T06:41:58;7.1;;;1.7;;
34453;SDS011;60061;52.080;5.312;2022-07-22T06:45:30;6.3;;;1.6;;
34453;SDS011;60061;52.080;5.312;2022-07-22T06:47:17;3.9;;;1.6;;
34453;SDS011;60061;52.080;5.312;2022-07-22T06:49:03;5.4;;;1.6;;
34453;SDS011;60061;52.080;5.312;2022-07-22T06:50:50;1.9;;;1.5;;
34453;SDS011;60061;52.080;5.312;2022-07-22T06:52:38;4.3;;;1.9;;
34453;SDS011;60061;52.080;5.312;2022-07-22T06:54:26;4.3;;;1.8;;
34453;SDS011;60061;52.080;5.312;2022-07-22T06:57:58;6.3;;;1.6;;
34453;SDS011;60061;52.080;5.312;2022-07-22T06:59:44;7.8;;;1.7;;
34453;SDS011;60061;52.080;5.312;2022-07-22T07:01:30;4.5;;;1.6;;
34453;SDS011;60061;52.080;5.312;2022-07-22T07:03:17;5.0;;;2.0;;
34453;SDS011;60061;52.080;5.312;2022-07-22T07:05:04;4.41;;;1.5;;
34453;SDS011;60061;52.080;5.312;2022-07-22T07:08:38;5.3;;;2.5;;
34453;SDS011;60061;52.080;5.312;2022-07-22T07:10:25;6.7;;;1.6;;
34453;SDS011;60061;52.080;5.312;2022-07-22T07:12:12;4.2;;;1.5;;
34453;SDS011;60061;52.080;5.312;2022-07-22T07:13:58;3.5;;;1.3;;
34453;SDS011;60061;52.080;5.312;2022-07-22T07:15:45;3.5;;;1.4;;
34453;SDS011;60061;52.080;5.312;2022-07-22T07:17:31;4.0;;;1.4;;
34453;SDS011;60061;52.080;5.312;2022-07-22T07:21:06;3.6;;;1.3;;
34453;SDS011;60061;52.080;5.312;2022-07-22T07:22:52;3.7;;;1.6;;
34453;SDS011;60061;52.080;5.312;2022-07-22T07:24:39;4.8;;;1.5;;
34453;SDS011;60061;52.080;5.312;2022-07-22T07:26:26;4.61;;;1.3;;
34453;SDS011;60061;52.080;5.312;2022-07-22T07:28:12;4.41;;;1.5;;
34453;SDS011;60061;52.080;5.312;2022-07-22T07:29:59;4.41;;;1.3;;
34453;SDS011;60061;52.080;5.312;2022-07-22T07:33:33;4.7;;;2.21;;
34453;SDS011;60061;52.080;5.312;2022-07-22T07:35:19;4.2;;;1.5;;
34453;SDS011;60061;52.080;5.312;2022-07-22T07:37:07;3.8;;;1.6;;
34453;SDS011;60061;52.080;5.312;2022-07-22T07:38:53;2.8;;;1.4;;
34453;SDS011;60061;52.080;5.312;2022-07-22T07:40:39;4.91;;;1.4;;
34453;SDS011;60061;52.080;5.312;2022-07-22T07:44:13;5.8;;;1.7;;
34453;SDS011;60061;52.080;5.312;2022-07-22T07:45:59;2.31;;;1.4;;
34453;SDS011;60061;52.080;5.312;2022-07-22T07:47:47;2.7;;;1.3;;
34453;SDS011;60061;52.080;5.312;2022-07-22T07:49:35;6.2;;;1.5;;
34453;SDS011;60061;52.080;5.312;2022-07-22T07:51:22;2.31;;;1.3;;
34453;SDS011;60061;52.080;5.312;2022-07-22T07:53:08;2.21;;;1.3;;
34453;SDS011;60061;52.080;5.312;2022-07-22T07:56:42;1.7;;;1.3;;
34453;SDS011;60061;52.080;5.312;2022-07-22T07:58:29;4.5;;;1.7;;
34453;SDS011;60061;52.080;5.312;2022-07-22T08:00:15;3.7;;;1.3;;
34453;SDS011;60061;52.080;5.312;2022-07-22T08:02:05;2.21;;;1.6;;
34453;SDS011;60061;52.080;5.312;2022-07-22T08:03:53;3.5;;;1.6;;
34453;SDS011;60061;52.080;5.312;2022-07-22T08:05:39;2.5;;;1.3;;
34453;SDS011;60061;52.080;5.312;2022-07-22T08:09:14;3.5;;;1.4;;
34453;SDS011;60061;52.080;5.312;2022-07-22T08:11:00;3.7;;;2.0;;
34453;SDS011;60061;52.080;5.312;2022-07-22T08:12:46;2.9;;;1.3;;
34453;SDS011;60061;52.080;5.312;2022-07-22T08:14:33;7.1;;;1.6;;
34453;SDS011;60061;52.080;5.312;2022-07-22T08:16:20;3.4;;;1.6;;
34453;SDS011;60061;52.080;5.312;2022-07-22T08:18:07;3.3;;;1.3;;
34453;SDS011;60061;52.080;5.312;2022-07-22T08:21:42;2.8;;;1.5;;
34453;SDS011;60061;52.080;5.312;2022-07-22T08:23:28;4.1;;;1.3;;
34453;SDS011;60061;52.080;5.312;2022-07-22T08:25:15;3.5;;;1.4;;
34453;SDS011;60061;52.080;5.312;2022-07-22T08:27:02;2.9;;;1.5;;
34453;SDS011;60061;52.080;5.312;2022-07-22T08:28:50;3.6;;;1.5;;
34453;SDS011;60061;52.080;5.312;2022-07-22T08:32:23;2.31;;;1.4;;
34453;SDS011;60061;52.080;5.312;2022-07-22T08:34:09;3.0;;;1.4;;
34453;SDS011;60061;52.080;5.312;2022-07-22T08:35:56;4.91;;;1.7;;
34453;SDS011;60061;52.080;5.312;2022-07-22T08:37:45;3.5;;;1.6;;
34453;SDS011;60061;52.080;5.312;2022-07-22T08:39:34;4.2;;;1.6;;
34453;SDS011;60061;52.080;5.312;2022-07-22T08:41:20;2.8;;;1.5;;
34453;SDS011;60061;52.080;5.312;2022-07-22T08:44:56;3.8;;;1.5;;
34453;SDS011;60061;52.080;5.312;2022-07-22T08:46:44;6.2;;;1.7;;
34453;SDS011;60061;52.080;5.312;2022-07-22T08:48:31;5.2;;;1.5;;
34453;SDS011;60061;52.080;5.312;2022-07-22T08:50:17;3.6;;;1.4;;
34453;SDS011;60061;52.080;5.312;2022-07-22T08:53:52;8.4;;;1.6;;
34453;SDS011;60061;52.080;5.312;2022-07-22T08:57:28;3.5;;;1.5;;
34453;SDS011;60061;52.080;5.312;2022-07-22T08:59:14;4.91;;;1.5;;
34453;SDS011;60061;52.080;5.312;2022-07-22T09:01:05;5.7;;;1.8;;
34453;SDS011;60061;52.080;5.312;2022-07-22T09:02:53;4.7;;;1.7;;
34453;SDS011;60061;52.080;5.312;2022-07-22T09:04:56;2.8;;;1.5;;
34453;SDS011;60061;52.080;5.312;2022-07-22T09:06:48;8.31;;;1.7;;
34453;SDS011;60061;52.080;5.312;2022-07-22T09:08:43;6.8;;;1.6;;
34453;SDS011;60061;52.080;5.312;2022-07-22T09:10:36;5.0;;;1.6;;
34453;SDS011;60061;52.080;5.312;2022-07-22T09:14:11;5.2;;;1.5;;
34453;SDS011;60061;52.080;5.312;2022-07-22T09:15:58;2.7;;;1.3;;
34453;SDS011;60061;52.080;5.312;2022-07-22T09:17:45;3.3;;;1.7;;
34453;SDS011;60061;52.080;5.312;2022-07-22T09:19:33;3.4;;;1.5;;
34453;SDS011;60061;52.080;5.312;2022-07-22T09:21:20;4.91;;;1.9;;
34453;SDS011;60061;52.080;5.312;2022-07-22T09:23:09;5.11;;;1.6;;
34453;SDS011;60061;52.080;5.312;2022-07-22T09:26:44;4.8;;;1.8;;
34453;SDS011;60061;52.080;5.312;2022-07-22T09:28:30;2.9;;;1.3;;
34453;SDS011;60061;52.080;5.312;2022-07-22T09:30:17;2.8;;;1.7;;
34453;SDS011;60061;52.080;5.312;2022-07-22T09:32:06;4.91;;;1.5;;
34453;SDS011;60061;52.080;5.312;2022-07-22T09:33:54;4.3;;;1.9;;
34453;SDS011;60061;52.080;5.312;2022-07-22T09:35:41;4.1;;;1.7;;
34453;SDS011;60061;52.080;5.312;2022-07-22T09:39:23;4.41;;;1.8;;
34453;SDS011;60061;52.080;5.312;2022-07-22T09:41:13;3.3;;;1.7;;
34453;SDS011;60061;52.080;5.312;2022-07-22T09:43:02;4.1;;;1.7;;
34453;SDS011;60061;52.080;5.312;2022-07-22T09:44:50;2.9;;;1.6;;
34453;SDS011;60061;52.080;5.312;2022-07-22T09:46:37;2.6;;;1.5;;
34453;SDS011;60061;52.080;5.312;2022-07-22T09:48:24;2.7;;;1.6;;
34453;SDS011;60061;52.080;5.312;2022-07-22T09:50:15;3.2;;;1.6;;
34453;SDS011;60061;52.080;5.312;2022-07-22T09:53:52;4.1;;;1.8;;
34453;SDS011;60061;52.080;5.312;2022-07-22T09:55:41;2.6;;;1.6;;
34453;SDS011;60061;52.080;5.312;2022-07-22T09:57:27;4.0;;;1.8;;
34453;SDS011;60061;52.080;5.312;2022-07-22T09:59:14;2.4;;;1.5;;
34453;SDS011;60061;52.080;5.312;2022-07-22T10:01:03;4.41;;;1.8;;
34453;SDS011;60061;52.080;5.312;2022-07-22T10:02:52;5.4;;;2.31;;
34453;SDS011;60061;52.080;5.312;2022-07-22T10:06:33;3.8;;;1.9;;
34453;SDS011;60061;52.080;5.312;2022-07-22T10:08:23;5.2;;;1.7;;
34453;SDS011;60061;52.080;5.312;2022-07-22T10:10:12;6.7;;;1.8;;
34453;SDS011;60061;52.080;5.312;2022-07-22T10:12:01;4.91;;;2.0;;
34453;SDS011;60061;52.080;5.312;2022-07-22T10:13:48;5.8;;;2.1;;
34453;SDS011;60061;52.080;5.312;2022-07-22T10:15:36;3.1;;;1.7;;
34453;SDS011;60061;52.080;5.312;2022-07-22T10:17:24;3.2;;;1.6;;
34453;SDS011;60061;52.080;5.312;2022-07-22T10:21:02;4.8;;;1.6;;
34453;SDS011;60061;52.080;5.312;2022-07-22T10:22:53;6.2;;;1.8;;
34453;SDS011;60061;52.080;5.312;2022-07-22T10:24:54;6.4;;;2.21;;
34453;SDS011;60061;52.080;5.312;2022-07-22T10:26:46;6.5;;;2.31;;
34453;SDS011;60061;52.080;5.312;2022-07-22T10:28:35;2.6;;;1.9;;
34453;SDS011;60061;52.080;5.312;2022-07-22T10:30:25;3.9;;;2.0;;
34453;SDS011;60061;52.080;5.312;2022-07-22T10:32:22;5.5;;;2.5;;
34453;SDS011;60061;52.080;5.312;2022-07-22T10:34:09;4.91;;;2.1;;
34453;SDS011;60061;52.080;5.312;2022-07-22T10:37:48;3.1;;;1.9;;
34453;SDS011;60061;52.080;5.312;2022-07-22T10:39:42;4.41;;;2.21;;
34453;SDS011;60061;52.080;5.312;2022-07-22T10:41:56;4.8;;;2.4;;
34453;SDS011;60061;52.080;5.312;2022-07-22T10:43:45;3.9;;;2.4;;
34453;SDS011;60061;52.080;5.312;2022-07-22T10:45:33;3.9;;;2.4;;
34453;SDS011;60061;52.080;5.312;2022-07-22T10:47:43;6.4;;;2.5;;
34453;SDS011;60061;52.080;5.312;2022-07-22T10:49:38;2.8;;;2.1;;
34453;SDS011;60061;52.080;5.312;2022-07-22T10:51:26;3.2;;;2.1;;
34453;SDS011;60061;52.080;5.312;2022-07-22T10:53:13;4.41;;;2.1;;
34453;SDS011;60061;52.080;5.312;2022-07-22T10:55:17;3.8;;;2.1;;
34453;SDS011;60061;52.080;5.312;2022-07-22T10:57:05;5.2;;;2.4;;
34453;SDS011;60061;52.080;5.312;2022-07-22T11:00:43;3.9;;;2.31;;
34453;SDS011;60061;52.080;5.312;2022-07-22T11:02:29;5.3;;;2.7;;
34453;SDS011;60061;52.080;5.312;2022-07-22T11:04:18;6.5;;;2.31;;
34453;SDS011;60061;52.080;5.312;2022-07-22T11:06:16;5.0;;;2.21;;
34453;SDS011;60061;52.080;5.312;2022-07-22T11:08:08;5.4;;;2.31;;
34453;SDS011;60061;52.080;5.312;2022-07-22T11:10:07;4.1;;;2.21;;
34453;SDS011;60061;52.080;5.312;2022-07-22T11:11:56;6.6;;;2.1;;
34453;SDS011;60061;52.080;5.312;2022-07-22T11:15:31;4.8;;;3.2;;
34453;SDS011;60061;52.080;5.312;2022-07-22T11:17:17;6.1;;;3.2;;
34453;SDS011;60061;52.080;5.312;2022-07-22T11:19:03;6.0;;;4.0;;
34453;SDS011;60061;52.080;5.312;2022-07-22T11:20:50;8.6;;;4.0;;
34453;SDS011;60061;52.080;5.312;2022-07-22T11:22:38;7.8;;;4.3;;
34453;SDS011;60061;52.080;5.312;2022-07-22T11:24:25;7.1;;;4.1;;
34453;SDS011;60061;52.080;5.312;2022-07-22T11:28:02;6.2;;;4.0;;
34453;SDS011;60061;52.080;5.312;2022-07-22T11:29:49;7.0;;;3.9;;
34453;SDS011;60061;52.080;5.312;2022-07-22T11:31:37;7.4;;;3.7;;
34453;SDS011;60061;52.080;5.312;2022-07-22T11:33:25;5.5;;;3.6;;
34453;SDS011;60061;52.080;5.312;2022-07-22T11:35:11;5.2;;;4.0;;
34453;SDS011;60061;52.080;5.312;2022-07-22T11:36:58;5.5;;;4.41;;
34453;SDS011;60061;52.080;5.312;2022-07-22T11:40:33;9.0;;;4.5;;
34453;SDS011;60061;52.080;5.312;2022-07-22T11:42:19;11.6;;;4.91;;
34453;SDS011;60061;52.080;5.312;2022-07-22T11:44:06;9.1;;;4.8;;
34453;SDS011;60061;52.080;5.312;2022-07-22T11:45:56;7.4;;;4.8;;
34453;SDS011;60061;52.080;5.312;2022-07-22T11:47:48;6.8;;;4.3;;
34453;SDS011;60061;52.080;5.312;2022-07-22T11:49:36;6.6;;;4.3;;
34453;SDS011;60061;52.080;5.312;2022-07-22T11:53:15;6.2;;;4.1;;
34453;SDS011;60061;52.080;5.312;2022-07-22T11:55:02;4.8;;;4.3;;
34453;SDS011;60061;52.080;5.312;2022-07-22T11:57:01;8.5;;;4.7;;
34453;SDS011;60061;52.080;5.312;2022-07-22T11:58:49;8.5;;;4.7;;
34453;SDS011;60061;52.080;5.312;2022-07-22T12:00:38;6.5;;;4.3;;
34453;SDS011;60061;52.080;5.312;2022-07-22T12:02:24;5.6;;;4.41;;
34453;SDS011;60061;52.080;5.312;2022-07-22T12:04:11;8.6;;;4.41;;
34453;SDS011;60061;52.080;5.312;2022-07-22T12:07:52;5.2;;;3.9;;
34453;SDS011;60061;52.080;5.312;2022-07-22T12:09:38;6.2;;;4.2;;
34453;SDS011;60061;52.080;5.312;2022-07-22T12:11:27;5.3;;;4.0;;
34453;SDS011;60061;52.080;5.312;2022-07-22T12:13:14;6.9;;;4.41;;
34453;SDS011;60061;52.080;5.312;2022-07-22T12:15:00;6.9;;;4.8;;
34453;SDS011;60061;52.080;5.312;2022-07-22T12:16:54;5.3;;;4.0;;
34453;SDS011;60061;52.080;5.312;2022-07-22T12:18:42;4.7;;;4.0;;
34453;SDS011;60061;52.080;5.312;2022-07-22T12:22:19;4.91;;;3.9;;
34453;SDS011;60061;52.080;5.312;2022-07-22T12:24:07;5.3;;;4.1;;
34453;SDS011;60061;52.080;5.312;2022-07-22T12:25:55;6.8;;;4.41;;
34453;SDS011;60061;52.080;5.312;2022-07-22T12:27:58;8.71;;;4.7;;
34453;SDS011;60061;52.080;5.312;2022-07-22T12:29:46;5.11;;;4.0;;
34453;SDS011;60061;52.080;5.312;2022-07-22T12:31:40;7.0;;;4.41;;
34453;SDS011;60061;52.080;5.312;2022-07-22T12:33:28;5.6;;;4.0;;
34453;SDS011;60061;52.080;5.312;2022-07-22T12:37:18;5.3;;;4.0;;
34453;SDS011;60061;52.080;5.312;2022-07-22T12:39:12;7.6;;;4.3;;
34453;SDS011;60061;52.080;5.312;2022-07-22T12:41:34;4.41;;;4.0;;
34453;SDS011;60061;52.080;5.312;2022-07-22T12:43:32;4.5;;;3.9;;
34453;SDS011;60061;52.080;5.312;2022-07-22T12:45:25;8.2;;;4.5;;
34453;SDS011;60061;52.080;5.312;2022-07-22T12:47:13;7.4;;;4.5;;
34453;SDS011;60061;52.080;5.312;2022-07-22T12:49:00;6.0;;;4.5;;
34453;SDS011;60061;52.080;5.312;2022-07-22T12:50:54;5.7;;;4.1;;
34453;SDS011;60061;52.080;5.312;2022-07-22T12:52:42;11.8;;;5.0;;
34453;SDS011;60061;52.080;5.312;2022-07-22T12:54:28;5.7;;;4.7;;
34453;SDS011;60061;52.080;5.312;2022-07-22T12:58:00;7.8;;;4.61;;
34453;SDS011;60061;52.080;5.312;2022-07-22T12:59:51;7.8;;;4.61;;
34453;SDS011;60061;52.080;5.312;2022-07-22T13:01:38;6.7;;;4.8;;
34453;SDS011;60061;52.080;5.312;2022-07-22T13:03:26;6.3;;;4.8;;